createdAt,value
2023-04-09T00:01:19.906Z,96.41
2023-04-09T00:03:51.098Z,96.39
2023-04-09T00:06:21.976Z,96.36
2023-04-09T00:08:49.931Z,96.36
2023-04-09T00:11:18.297Z,96.35
2023-04-09T00:13:46.016Z,96.34
2023-04-09T00:16:13.927Z,96.35
2023-04-09T00:18:41.880Z,96.36
2023-04-09T00:21:09.710Z,96.35
2023-04-09T00:23:40.596Z,96.36
2023-04-09T00:26:08.464Z,96.33
2023-04-09T00:28:36.434Z,96.32
2023-04-09T00:31:04.386Z,96.34
2023-04-09T00:33:32.276Z,96.39
2023-04-09T00:36:00.143Z,96.41
2023-04-09T00:38:28.167Z,96.42
2023-04-09T00:40:55.922Z,96.44
2023-04-09T00:43:23.673Z,96.46
2023-04-09T00:45:51.458Z,96.46
2023-04-09T00:48:19.215Z,96.50
2023-04-09T00:50:50.245Z,96.57
2023-04-09T00:53:18.107Z,96.62
2023-04-09T00:55:45.933Z,96.65
2023-04-09T00:58:14.078Z,96.69
2023-04-09T01:00:41.877Z,96.71
2023-04-09T01:03:09.871Z,96.73
2023-04-09T01:05:46.803Z,96.74
2023-04-09T01:08:14.711Z,96.75
2023-04-09T01:10:59.352Z,96.77
2023-04-09T01:13:42.576Z,96.76
2023-04-09T01:16:12.266Z,96.76
2023-04-09T01:18:45.095Z,96.79
2023-04-09T01:21:21.125Z,96.81
2023-04-09T01:23:57.997Z,96.84
2023-04-09T01:26:30.862Z,96.85
2023-04-09T01:29:00.531Z,96.88
2023-04-09T01:31:29.685Z,96.92
2023-04-09T01:33:57.684Z,96.95
2023-04-09T01:36:26.492Z,96.97
2023-04-09T01:38:55.951Z,96.98
2023-04-09T01:41:26.850Z,97.00
2023-04-09T01:43:55.502Z,97.02
2023-04-09T01:46:24.541Z,97.04
2023-04-09T01:48:52.753Z,97.10
2023-04-09T01:51:21.040Z,97.14
2023-04-09T01:53:49.420Z,97.18
2023-04-09T01:56:19.823Z,97.19
2023-04-09T01:58:47.641Z,97.18
2023-04-09T02:01:30.063Z,97.17
2023-04-09T02:04:00.513Z,97.17
2023-04-09T02:06:47.375Z,97.14
2023-04-09T02:09:17.065Z,97.11
2023-04-09T02:11:46.333Z,97.07
2023-04-09T02:14:15.326Z,97.05
2023-04-09T02:16:43.104Z,96.84
2023-04-09T02:19:11.859Z,96.36
2023-04-09T02:21:39.843Z,95.31
2023-04-09T02:24:07.606Z,94.22
2023-04-09T02:26:35.571Z,94.08
2023-04-09T02:29:05.543Z,94.70
2023-04-09T02:31:33.480Z,94.89
2023-04-09T02:34:01.493Z,95.05
2023-04-09T02:36:29.478Z,95.14
2023-04-09T02:38:57.235Z,95.18
2023-04-09T02:41:24.980Z,95.07
2023-04-09T02:43:52.817Z,95.12
2023-04-09T02:46:20.883Z,95.27
2023-04-09T02:48:48.890Z,95.19
2023-04-09T02:51:19.289Z,94.27
2023-04-09T02:53:49.527Z,94.31
2023-04-09T02:56:17.378Z,94.63
2023-04-09T02:58:45.158Z,94.90
2023-04-09T03:01:13.094Z,94.73
2023-04-09T03:03:41.052Z,94.67
2023-04-09T03:06:09.072Z,95.03
2023-04-09T03:08:39.188Z,95.19
2023-04-09T03:11:07.052Z,95.45
2023-04-09T03:13:34.779Z,95.55
2023-04-09T03:16:07.997Z,95.54
2023-04-09T03:18:36.472Z,95.55
2023-04-09T03:21:07.837Z,95.67
2023-04-09T03:23:37.099Z,95.68
2023-04-09T03:26:06.521Z,95.62
2023-04-09T03:28:47.664Z,95.58
2023-04-09T03:31:15.568Z,95.46
2023-04-09T03:33:46.540Z,95.43
2023-04-09T03:36:20.084Z,95.57
2023-04-09T03:39:16.613Z,95.76
2023-04-09T03:41:45.010Z,95.88
2023-04-09T03:44:16.072Z,96.01
2023-04-09T03:46:57.259Z,96.04
2023-04-09T03:49:25.688Z,96.00
2023-04-09T03:51:54.708Z,95.94
2023-04-09T03:54:24.387Z,95.91
2023-04-09T03:56:54.456Z,95.89
2023-04-09T03:59:23.578Z,95.78
2023-04-09T04:01:51.711Z,95.79
2023-04-09T04:04:23.420Z,95.81
2023-04-09T04:06:57.572Z,95.91
2023-04-09T04:09:38.051Z,96.04
2023-04-09T04:12:09.629Z,96.13
2023-04-09T04:14:52.471Z,96.23
2023-04-09T04:17:29.602Z,96.28
2023-04-09T04:19:57.442Z,96.34
2023-04-09T04:22:26.335Z,96.37
2023-04-09T04:24:56.297Z,96.38
2023-04-09T04:27:24.393Z,96.42
2023-04-09T04:29:52.318Z,96.41
2023-04-09T04:32:41.802Z,96.36
2023-04-09T04:35:11.333Z,96.34
2023-04-09T04:37:39.636Z,96.32
2023-04-09T04:40:08.366Z,96.29
2023-04-09T04:42:38.784Z,96.25
2023-04-09T04:45:11.163Z,96.19
2023-04-09T04:47:44.357Z,96.00
2023-04-09T04:50:12.165Z,95.53
2023-04-09T04:52:51.576Z,95.19
2023-04-09T04:55:20.750Z,95.11
2023-04-09T04:57:50.445Z,95.38
2023-04-09T05:00:19.456Z,95.43
2023-04-09T05:02:48.613Z,95.47
2023-04-09T05:05:23.409Z,95.65
2023-04-09T05:07:54.798Z,95.70
2023-04-09T05:10:23.098Z,95.72
2023-04-09T05:12:54.008Z,95.67
2023-04-09T05:15:28.020Z,95.79
2023-04-09T05:17:56.136Z,95.90
2023-04-09T05:20:24.083Z,96.07
2023-04-09T05:23:01.205Z,96.23
2023-04-09T05:25:32.310Z,96.33
2023-04-09T05:28:01.215Z,96.43
2023-04-09T05:30:30.594Z,96.52
2023-04-09T05:32:59.118Z,96.59
2023-04-09T05:35:27.813Z,96.66
2023-04-09T05:37:55.879Z,96.70
2023-04-09T05:40:24.210Z,96.75
2023-04-09T05:42:53.987Z,96.82
2023-04-09T05:45:42.435Z,96.85
2023-04-09T05:48:10.285Z,96.86
2023-04-09T05:50:53.440Z,96.88
2023-04-09T05:53:22.752Z,96.91
2023-04-09T05:55:50.513Z,96.85
2023-04-09T05:58:19.354Z,96.74
2023-04-09T06:00:47.967Z,96.68
2023-04-09T06:03:15.819Z,96.67
2023-04-09T06:05:45.147Z,96.70
2023-04-09T06:08:12.988Z,96.74
2023-04-09T06:10:41.442Z,96.79
2023-04-09T06:13:10.169Z,96.84
2023-04-09T06:15:38.516Z,96.90
2023-04-09T06:18:06.728Z,96.97
2023-04-09T06:20:34.734Z,97.02
2023-04-09T06:23:02.824Z,97.04
2023-04-09T06:25:33.135Z,97.03
2023-04-09T06:28:01.138Z,97.02
2023-04-09T06:30:29.295Z,97.00
2023-04-09T06:32:57.043Z,96.94
2023-04-09T06:35:24.817Z,96.89
2023-04-09T06:37:52.548Z,96.82
2023-04-09T06:40:22.990Z,96.64
2023-04-09T06:42:51.314Z,96.13
2023-04-09T06:45:23.877Z,95.39
2023-04-09T06:47:51.824Z,94.43
2023-04-09T06:50:19.951Z,93.24
2023-04-09T06:52:47.764Z,93.38
2023-04-09T06:55:18.267Z,92.62
2023-04-09T06:57:46.233Z,92.68
2023-04-09T07:00:14.142Z,93.05
2023-04-09T07:02:42.572Z,92.73
2023-04-09T07:05:13.276Z,92.35
2023-04-09T07:07:41.592Z,90.62
2023-04-09T07:10:19.455Z,91.34
2023-04-09T07:12:50.203Z,91.76
2023-04-09T07:15:18.030Z,91.51
2023-04-09T07:17:48.890Z,92.49
2023-04-09T07:20:19.297Z,92.51
2023-04-09T07:22:47.263Z,91.38
2023-04-09T07:25:21.201Z,90.88
2023-04-09T07:27:58.614Z,92.75
2023-04-09T07:30:26.495Z,93.49
2023-04-09T07:32:54.553Z,91.98
2023-04-09T07:35:22.315Z,91.68
2023-04-09T07:37:50.143Z,92.55
2023-04-09T07:40:18.197Z,92.14
2023-04-09T07:42:50.863Z,91.10
2023-04-09T07:45:18.715Z,91.20
2023-04-09T07:47:49.848Z,91.86
2023-04-09T07:50:17.678Z,91.28
2023-04-09T07:52:45.450Z,89.36
2023-04-09T07:55:16.749Z,89.09
2023-04-09T07:57:45.295Z,90.38
2023-04-09T08:00:13.396Z,92.73
2023-04-09T08:02:41.505Z,93.67
2023-04-09T08:05:09.857Z,92.88
2023-04-09T08:07:40.883Z,93.21
2023-04-09T08:10:08.929Z,91.12
2023-04-09T08:12:36.801Z,90.59
2023-04-09T08:15:04.732Z,88.85
2023-04-09T08:17:32.688Z,89.21
2023-04-09T08:20:03.093Z,89.22
2023-04-09T08:22:31.192Z,89.66
2023-04-09T08:25:00.271Z,90.96
2023-04-09T08:27:39.062Z,90.62
2023-04-09T08:30:07.512Z,92.07
2023-04-09T08:32:35.381Z,91.87
2023-04-09T08:35:03.329Z,90.72
2023-04-09T08:37:31.067Z,90.24
2023-04-09T08:39:58.859Z,89.78
2023-04-09T08:42:27.425Z,89.48
2023-04-09T08:44:55.331Z,87.48
2023-04-09T08:47:23.932Z,87.97
2023-04-09T08:49:52.976Z,89.25
2023-04-09T08:52:30.613Z,89.74
2023-04-09T08:54:58.710Z,86.32
2023-04-09T08:57:26.902Z,85.27
2023-04-09T08:59:54.945Z,85.41
2023-04-09T09:02:25.415Z,87.33
2023-04-09T09:04:53.575Z,91.21
2023-04-09T09:07:24.719Z,92.06
2023-04-09T09:10:12.354Z,90.81
2023-04-09T09:12:43.529Z,91.12
2023-04-09T09:15:28.144Z,87.49
2023-04-09T09:17:57.057Z,86.44
2023-04-09T09:20:34.153Z,86.26
2023-04-09T09:23:02.469Z,86.30
2023-04-09T09:25:30.381Z,87.92
2023-04-09T09:28:07.061Z,87.80
2023-04-09T09:30:35.129Z,87.73
2023-04-09T09:33:07.458Z,88.19
2023-04-09T09:35:48.699Z,91.56
2023-04-09T09:38:17.176Z,91.94
2023-04-09T09:40:45.033Z,91.16
2023-04-09T09:43:14.529Z,91.60
2023-04-09T09:45:42.742Z,90.35
2023-04-09T09:48:11.376Z,90.18
2023-04-09T09:50:43.240Z,89.80
2023-04-09T09:53:11.835Z,91.58
2023-04-09T09:55:40.992Z,92.23
2023-04-09T09:58:16.394Z,92.83
2023-04-09T10:00:46.534Z,92.70
2023-04-09T10:03:15.391Z,90.52
2023-04-09T10:05:44.854Z,90.26
2023-04-09T10:08:13.182Z,90.23
2023-04-09T10:10:47.011Z,90.11
2023-04-09T10:13:33.844Z,87.58
2023-04-09T10:16:01.946Z,87.68
2023-04-09T10:18:30.466Z,90.24
2023-04-09T10:21:08.377Z,89.82
2023-04-09T10:23:41.873Z,91.26
2023-04-09T10:26:10.324Z,91.26
2023-04-09T10:28:38.475Z,91.48
2023-04-09T10:31:07.154Z,90.02
2023-04-09T10:33:49.308Z,89.62
2023-04-09T10:36:19.074Z,90.93
2023-04-09T10:38:47.149Z,87.11
2023-04-09T10:41:16.958Z,88.54
2023-04-09T10:43:47.133Z,89.60
2023-04-09T10:46:50.312Z,89.94
2023-04-09T10:49:25.469Z,88.00
2023-04-09T10:51:53.633Z,86.52
2023-04-09T10:54:34.070Z,84.58
2023-04-09T10:57:12.456Z,84.27
2023-04-09T10:59:41.368Z,88.28
2023-04-09T11:02:10.625Z,84.13
2023-04-09T11:05:12.700Z,82.31
2023-04-09T11:08:10.063Z,84.89
2023-04-09T11:10:58.041Z,79.70
2023-04-09T11:13:46.392Z,86.76
2023-04-09T11:16:26.570Z,87.21
2023-04-09T11:19:16.187Z,80.61
2023-04-09T11:21:47.843Z,81.22
2023-04-09T11:24:18.778Z,86.54
2023-04-09T11:27:07.155Z,87.49
2023-04-09T11:29:46.671Z,83.95
2023-04-09T11:32:15.431Z,79.49
2023-04-09T11:34:55.632Z,82.97
2023-04-09T11:37:44.025Z,82.46
2023-04-09T11:40:40.912Z,84.36
2023-04-09T11:43:29.182Z,88.65
2023-04-09T11:46:09.066Z,88.73
2023-04-09T11:49:00.100Z,90.11
2023-04-09T11:51:33.858Z,87.54
2023-04-09T11:54:20.503Z,83.95
2023-04-09T11:57:25.891Z,78.60
2023-04-09T12:00:14.161Z,78.02
2023-04-09T12:03:02.622Z,82.19
2023-04-09T12:05:51.372Z,66.56
2023-04-09T12:08:50.822Z,71.43
2023-04-09T12:11:50.831Z,81.82
2023-04-09T12:14:24.538Z,78.12
2023-04-09T12:16:52.620Z,70.98
2023-04-09T12:19:20.801Z,75.36
2023-04-09T12:21:55.403Z,66.92
2023-04-09T12:24:31.212Z,67.40
2023-04-09T12:27:02.212Z,51.33
2023-04-09T12:29:30.311Z,58.60
2023-04-09T12:32:01.678Z,57.78
2023-04-09T12:34:50.018Z,57.69
2023-04-09T12:37:31.232Z,65.75
2023-04-09T12:39:59.130Z,65.26
2023-04-09T12:42:32.555Z,74.16
2023-04-09T12:45:02.846Z,59.97
2023-04-09T12:47:30.917Z,59.37
2023-04-09T12:50:01.004Z,69.26
2023-04-09T12:52:34.924Z,81.32
2023-04-09T12:55:05.930Z,83.62
2023-04-09T12:57:39.303Z,85.54
2023-04-09T13:00:07.738Z,86.37
2023-04-09T13:02:38.443Z,87.69
2023-04-09T13:05:13.269Z,78.69
2023-04-09T13:07:46.650Z,81.43
2023-04-09T13:10:14.743Z,66.55
2023-04-09T13:12:42.574Z,75.21
2023-04-09T13:15:10.803Z,80.73
2023-04-09T13:17:38.844Z,74.97
2023-04-09T13:20:07.134Z,68.81
2023-04-09T13:22:37.756Z,72.98
2023-04-09T13:25:07.247Z,75.97
2023-04-09T13:27:35.167Z,82.14
2023-04-09T13:30:02.985Z,84.67
2023-04-09T13:32:31.704Z,80.88
2023-04-09T13:34:59.873Z,79.76
2023-04-09T13:37:27.681Z,75.99
2023-04-09T13:39:58.171Z,79.62
2023-04-09T13:42:25.989Z,78.81
2023-04-09T13:44:53.936Z,74.64
2023-04-09T13:47:22.025Z,71.13
2023-04-09T13:49:49.885Z,76.93
2023-04-09T13:52:17.656Z,77.62
2023-04-09T13:54:45.815Z,86.14
2023-04-09T13:57:16.993Z,85.03
2023-04-09T13:59:54.075Z,85.05
2023-04-09T14:02:22.427Z,83.35
2023-04-09T14:04:50.379Z,84.49
2023-04-09T14:07:18.354Z,87.23
2023-04-09T14:09:46.102Z,87.12
2023-04-09T14:12:13.982Z,83.06
2023-04-09T14:14:55.238Z,84.34
2023-04-09T14:17:33.196Z,86.20
2023-04-09T14:20:01.380Z,82.88
2023-04-09T14:22:29.644Z,78.01
2023-04-09T14:25:09.896Z,75.26
2023-04-09T14:27:37.821Z,80.91
2023-04-09T14:30:05.919Z,81.26
2023-04-09T14:32:33.851Z,79.10
2023-04-09T14:35:07.470Z,85.42
2023-04-09T14:37:47.884Z,84.20
2023-04-09T14:40:16.043Z,84.49
2023-04-09T14:42:46.052Z,85.86
2023-04-09T14:45:14.050Z,85.07
2023-04-09T14:47:42.038Z,76.36
2023-04-09T14:50:13.134Z,84.49
2023-04-09T14:52:41.000Z,87.49
2023-04-09T14:55:15.085Z,88.94
2023-04-09T14:57:43.135Z,89.83
2023-04-09T15:00:12.067Z,90.20
2023-04-09T15:02:47.737Z,90.03
2023-04-09T15:05:16.123Z,88.55
2023-04-09T15:07:43.831Z,89.53
2023-04-09T15:10:11.734Z,90.07
2023-04-09T15:12:39.767Z,90.68
2023-04-09T15:15:08.197Z,89.88
2023-04-09T15:17:39.222Z,88.24
2023-04-09T15:20:10.083Z,83.34
2023-04-09T15:22:40.451Z,85.36
2023-04-09T15:25:08.620Z,89.22
2023-04-09T15:27:36.385Z,88.85
2023-04-09T15:30:04.488Z,82.06
2023-04-09T15:32:53.027Z,83.73
2023-04-09T15:35:24.107Z,78.18
2023-04-09T15:37:59.452Z,83.46
2023-04-09T15:40:32.225Z,78.42
2023-04-09T15:43:00.091Z,83.52
2023-04-09T15:45:28.114Z,85.70
2023-04-09T15:48:16.916Z,84.29
2023-04-09T15:50:44.890Z,82.42
2023-04-09T15:53:15.705Z,86.93
2023-04-09T15:55:43.736Z,88.43
2023-04-09T15:58:11.706Z,88.52
2023-04-09T16:00:39.579Z,83.94
2023-04-09T16:03:07.367Z,84.52
2023-04-09T16:05:35.158Z,87.79
2023-04-09T16:08:03.003Z,86.85
2023-04-09T16:10:31.126Z,84.20
2023-04-09T16:12:59.226Z,88.63
2023-04-09T16:15:27.286Z,87.54
2023-04-09T16:17:55.627Z,80.48
2023-04-09T16:20:23.365Z,75.57
2023-04-09T16:22:51.273Z,78.19
2023-04-09T16:25:19.060Z,78.54
2023-04-09T16:27:46.982Z,83.59
2023-04-09T16:30:14.997Z,85.41
2023-04-09T16:32:43.138Z,80.19
2023-04-09T16:35:10.977Z,80.55
2023-04-09T16:37:38.952Z,75.59
2023-04-09T16:40:07.710Z,77.19
2023-04-09T16:42:35.814Z,78.14
2023-04-09T16:45:07.092Z,78.50
2023-04-09T16:47:35.629Z,77.01
2023-04-09T16:50:03.779Z,79.82
2023-04-09T16:52:31.537Z,84.10
2023-04-09T16:54:59.535Z,80.56
2023-04-09T16:57:27.284Z,83.71
2023-04-09T16:59:55.623Z,84.91
2023-04-09T17:02:26.501Z,85.83
2023-04-09T17:04:54.745Z,83.68
2023-04-09T17:07:25.423Z,85.09
2023-04-09T17:09:53.814Z,86.25
2023-04-09T17:12:22.064Z,86.00
2023-04-09T17:14:50.044Z,87.66
2023-04-09T17:17:18.340Z,88.94
2023-04-09T17:19:46.146Z,84.07
2023-04-09T17:22:14.443Z,86.43
2023-04-09T17:24:42.381Z,88.97
2023-04-09T17:27:10.321Z,87.38
2023-04-09T17:29:38.145Z,87.32
2023-04-09T17:32:06.319Z,87.57
2023-04-09T17:34:34.167Z,82.82
2023-04-09T17:37:02.053Z,80.80
2023-04-09T17:39:29.994Z,79.66
2023-04-09T17:41:57.831Z,81.79
2023-04-09T17:44:25.803Z,80.83
2023-04-09T17:46:54.062Z,85.08
2023-04-09T17:49:21.848Z,84.02
2023-04-09T17:51:50.034Z,82.73
2023-04-09T17:54:19.297Z,83.20
2023-04-09T17:56:47.445Z,82.06
2023-04-09T17:59:15.611Z,81.01
2023-04-09T18:01:43.820Z,81.05
2023-04-09T18:04:12.102Z,82.34
2023-04-09T18:06:40.823Z,83.21
2023-04-09T18:09:08.882Z,81.14
2023-04-09T18:11:37.759Z,82.52
2023-04-09T18:14:06.012Z,81.87
2023-04-09T18:16:37.750Z,81.83
2023-04-09T18:19:06.385Z,83.47
2023-04-09T18:21:34.623Z,83.66
2023-04-09T18:24:02.965Z,82.23
2023-04-09T18:26:31.308Z,82.14
2023-04-09T18:29:01.007Z,82.23
2023-04-09T18:31:31.967Z,82.98
2023-04-09T18:34:00.141Z,83.14
2023-04-09T18:36:28.035Z,82.63
2023-04-09T18:38:56.862Z,85.35
2023-04-09T18:41:25.428Z,83.96
2023-04-09T18:43:53.598Z,84.84
2023-04-09T18:46:22.056Z,86.94
2023-04-09T18:48:50.385Z,84.91
2023-04-09T18:51:20.718Z,83.00
2023-04-09T18:53:48.979Z,84.25
2023-04-09T18:56:17.597Z,83.35
2023-04-09T18:58:46.044Z,83.10
2023-04-09T19:01:17.690Z,83.61
2023-04-09T19:03:46.393Z,83.52
2023-04-09T19:06:16.386Z,84.22
2023-04-09T19:08:45.302Z,83.22
2023-04-09T19:11:13.911Z,83.81
2023-04-09T19:13:42.039Z,83.68
2023-04-09T19:16:13.410Z,84.03
2023-04-09T19:18:44.581Z,84.74
2023-04-09T19:21:12.742Z,83.97
2023-04-09T19:23:40.885Z,85.57
2023-04-09T19:26:16.321Z,86.27
2023-04-09T19:28:47.663Z,86.20
2023-04-09T19:31:15.928Z,86.48
2023-04-09T19:33:44.059Z,84.95
2023-04-09T19:36:12.501Z,84.22
2023-04-09T19:38:40.716Z,87.06
2023-04-09T19:41:08.862Z,86.23
2023-04-09T19:43:39.212Z,86.14
2023-04-09T19:46:07.764Z,84.13
2023-04-09T19:48:37.044Z,84.16
2023-04-09T19:51:05.302Z,85.51
2023-04-09T19:53:36.243Z,84.84
2023-04-09T19:56:04.443Z,85.10
2023-04-09T19:58:32.470Z,85.03
2023-04-09T20:01:00.690Z,84.09
2023-04-09T20:03:28.682Z,84.51
2023-04-09T20:05:56.809Z,85.65
2023-04-09T20:08:25.036Z,84.77
2023-04-09T20:10:52.831Z,85.59
2023-04-09T20:13:21.072Z,86.30
2023-04-09T20:15:49.172Z,85.68
2023-04-09T20:18:20.133Z,85.17
2023-04-09T20:20:48.218Z,85.30
2023-04-09T20:23:16.151Z,85.32
2023-04-09T20:25:44.043Z,85.54
2023-04-09T20:28:14.566Z,85.46
2023-04-09T20:30:45.281Z,86.54
2023-04-09T20:33:13.287Z,86.28
2023-04-09T20:35:41.132Z,85.38
2023-04-09T20:38:09.201Z,85.26
2023-04-09T20:40:37.079Z,85.36
2023-04-09T20:43:04.937Z,85.30
2023-04-09T20:45:32.831Z,86.48
2023-04-09T20:48:00.671Z,85.30
2023-04-09T20:50:28.511Z,86.93
2023-04-09T20:52:56.389Z,85.93
2023-04-09T20:55:24.900Z,85.92
2023-04-09T20:57:53.830Z,86.03
2023-04-09T21:00:22.035Z,85.38
2023-04-09T21:02:51.340Z,85.44
2023-04-09T21:05:24.036Z,85.62
2023-04-09T21:07:52.751Z,85.79
2023-04-09T21:10:21.342Z,85.88
2023-04-09T21:12:49.106Z,87.23
2023-04-09T21:15:17.168Z,88.78
2023-04-09T21:17:45.017Z,86.39
2023-04-09T21:20:12.900Z,86.54
2023-04-09T21:22:40.759Z,86.33
2023-04-09T21:25:08.808Z,86.16
2023-04-09T21:27:36.709Z,86.38
2023-04-09T21:30:04.728Z,86.64
2023-04-09T21:32:32.569Z,86.67
2023-04-09T21:35:00.376Z,86.51
2023-04-09T21:37:28.280Z,86.69
2023-04-09T21:39:56.119Z,86.65
2023-04-09T21:42:23.919Z,86.53
2023-04-09T21:44:51.804Z,86.61
2023-04-09T21:47:19.570Z,86.65
2023-04-09T21:49:47.256Z,87.05
2023-04-09T21:52:15.261Z,87.03
2023-04-09T21:54:43.425Z,88.03
2023-04-09T21:57:11.483Z,87.04
2023-04-09T21:59:41.890Z,86.74
2023-04-09T22:02:09.774Z,86.75
2023-04-09T22:04:40.159Z,87.31
2023-04-09T22:07:08.802Z,87.24
2023-04-09T22:09:39.696Z,87.23
2023-04-09T22:12:10.189Z,87.41
2023-04-09T22:14:40.100Z,87.54
2023-04-09T22:17:09.524Z,87.70
2023-04-09T22:19:37.264Z,87.69
2023-04-09T22:22:07.920Z,87.75
2023-04-09T22:24:35.746Z,87.83
2023-04-09T22:27:03.513Z,88.08
2023-04-09T22:29:31.440Z,88.27
2023-04-09T22:31:59.226Z,88.43
2023-04-09T22:34:27.034Z,88.15
2023-04-09T22:36:54.802Z,88.00
2023-04-09T22:39:22.732Z,88.26
2023-04-09T22:41:50.460Z,88.51
2023-04-09T22:44:18.217Z,88.70
2023-04-09T22:46:46.022Z,88.91
2023-04-09T22:49:13.807Z,88.97
2023-04-09T22:51:44.139Z,89.18
2023-04-09T22:54:11.972Z,88.86
2023-04-09T22:56:39.766Z,89.57
2023-04-09T22:59:07.842Z,90.06
2023-04-09T23:01:36.049Z,89.44
2023-04-09T23:04:04.023Z,89.06
2023-04-09T23:06:31.944Z,89.25
2023-04-09T23:08:59.854Z,89.08
2023-04-09T23:11:27.763Z,90.02
2023-04-09T23:13:55.497Z,89.90
2023-04-09T23:16:23.500Z,91.34
2023-04-09T23:18:51.524Z,91.08
2023-04-09T23:21:19.714Z,91.29
2023-04-09T23:23:52.433Z,89.75
2023-04-09T23:26:23.087Z,89.98
2023-04-09T23:28:54.238Z,90.32
2023-04-09T23:31:27.690Z,89.61
2023-04-09T23:33:56.016Z,89.31
2023-04-09T23:36:23.873Z,89.02
2023-04-09T23:39:04.974Z,88.84
2023-04-09T23:41:35.764Z,88.88
2023-04-09T23:44:04.055Z,90.75
2023-04-09T23:46:34.618Z,89.16
2023-04-09T23:49:02.763Z,89.12
2023-04-09T23:51:30.599Z,89.66
2023-04-09T23:53:58.415Z,89.66
2023-04-09T23:56:27.951Z,89.18
2023-04-09T23:59:06.311Z,89.69
